sensor_id;sensor_type;location;lat;lon;timestamp;temperature;humidity
3288;DHT22;3260;52.438;13.502;2022-08-11T04:03:38;17.10;1.00
3288;DHT22;3260;52.438;13.502;2022-08-11T04:07:02;17.10;1.00
3288;DHT22;3260;52.438;13.502;2022-08-11T04:16:46;17.20;1.00
3288;DHT22;3260;52.438;13.502;2022-08-11T04:20:03;17.30;1.00
3288;DHT22;3260;52.438;13.502;2022-08-11T04:22:57;17.30;1.00
3288;DHT22;3260;52.438;13.502;2022-08-11T04:26:04;17.40;1.00
3288;DHT22;3260;52.438;13.502;2022-08-11T04:28:56;17.40;1.00
3288;DHT22;3260;52.438;13.502;2022-08-11T04:31:45;17.50;1.00
3288;DHT22;3260;52.438;13.502;2022-08-11T04:34:46;17.50;1.00
3288;DHT22;3260;52.438;13.502;2022-08-11T04:37:42;17.60;1.00
3288;DHT22;3260;52.438;13.502;2022-08-11T04:40:48;17.70;1.00
3288;DHT22;3260;52.438;13.502;2022-08-11T04:44:22;17.70;1.00
3288;DHT22;3260;52.438;13.502;2022-08-11T04:47:32;17.90;1.00
3288;DHT22;3260;52.438;13.502;2022-08-11T04:51:00;17.90;1.00
3288;DHT22;3260;52.438;13.502;2022-08-11T04:54:02;18.00;1.00
3288;DHT22;3260;52.438;13.502;2022-08-11T04:57:00;18.20;1.00
3288;DHT22;3260;52.438;13.502;2022-08-11T05:00:06;18.30;1.00
3288;DHT22;3260;52.438;13.502;2022-08-11T05:03:21;18.40;1.00
3288;DHT22;3260;52.438;13.502;2022-08-11T05:06:43;18.60;1.00
3288;DHT22;3260;52.438;13.502;2022-08-11T05:09:43;18.70;1.00
3288;DHT22;3260;52.438;13.502;2022-08-11T05:12:39;18.80;1.00
3288;DHT22;3260;52.438;13.502;2022-08-11T05:15:48;19.00;1.00
3288;DHT22;3260;52.438;13.502;2022-08-11T05:18:40;19.10;1.00
3288;DHT22;3260;52.438;13.502;2022-08-11T05:21:33;19.30;1.00
3288;DHT22;3260;52.438;13.502;2022-08-11T05:24:25;19.40;1.00
3288;DHT22;3260;52.438;13.502;2022-08-11T05:27:18;19.50;1.00
3288;DHT22;3260;52.438;13.502;2022-08-11T05:30:07;19.70;1.00
3288;DHT22;3260;52.438;13.502;2022-08-11T05:33:07;19.80;1.00
3288;DHT22;3260;52.438;13.502;2022-08-11T05:36:01;19.90;1.00
3288;DHT22;3260;52.438;13.502;2022-08-11T05:38:38;20.10;1.00
3288;DHT22;3260;52.438;13.502;2022-08-11T05:41:33;20.20;1.00
3288;DHT22;3260;52.438;13.502;2022-08-11T05:44:21;20.30;1.00
3288;DHT22;3260;52.438;13.502;2022-08-11T05:47:08;20.50;1.00
3288;DHT22;3260;52.438;13.502;2022-08-11T05:49:54;20.60;1.00
3288;DHT22;3260;52.438;13.502;2022-08-11T05:52:44;20.70;1.00
3288;DHT22;3260;52.438;13.502;2022-08-11T05:55:39;20.80;1.00
3288;DHT22;3260;52.438;13.502;2022-08-11T05:58:33;21.00;1.00
3288;DHT22;3260;52.438;13.502;2022-08-11T06:01:11;21.00;1.00
3288;DHT22;3260;52.438;13.502;2022-08-11T06:03:43;21.10;1.00
3288;DHT22;3260;52.438;13.502;2022-08-11T06:06:29;21.20;1.00
3288;DHT22;3260;52.438;13.502;2022-08-11T06:08:59;21.30;1.00
3288;DHT22;3260;52.438;13.502;2022-08-11T06:11:28;21.30;1.00
3288;DHT22;3260;52.438;13.502;2022-08-11T06:14:11;21.40;1.00
3288;DHT22;3260;52.438;13.502;2022-08-11T06:16:46;21.50;1.00
3288;DHT22;3260;52.438;13.502;2022-08-11T06:19:19;21.60;1.00
3288;DHT22;3260;52.438;13.502;2022-08-11T06:21:49;21.70;1.00
3288;DHT22;3260;52.438;13.502;2022-08-11T06:24:19;21.80;1.00
3288;DHT22;3260;52.438;13.502;2022-08-11T06:26:50;21.80;1.00
3288;DHT22;3260;52.438;13.502;2022-08-11T06:29:46;21.90;1.00
3288;DHT22;3260;52.438;13.502;2022-08-11T06:32:25;22.00;1.00
3288;DHT22;3260;52.438;13.502;2022-08-11T06:35:04;22.10;1.00
3288;DHT22;3260;52.438;13.502;2022-08-11T06:37:46;22.20;1.00
3288;DHT22;3260;52.438;13.502;2022-08-11T06:40:34;22.30;1.00
3288;DHT22;3260;52.438;13.502;2022-08-11T06:43:14;22.40;1.00
3288;DHT22;3260;52.438;13.502;2022-08-11T06:45:52;22.50;1.00
3288;DHT22;3260;52.438;13.502;2022-08-11T06:48:31;22.70;1.00
3288;DHT22;3260;52.438;13.502;2022-08-11T06:51:03;22.70;1.00
3288;DHT22;3260;52.438;13.502;2022-08-11T06:53:42;22.90;1.00
3288;DHT22;3260;52.438;13.502;2022-08-11T06:56:31;23.00;1.00
3288;DHT22;3260;52.438;13.502;2022-08-11T06:59:41;23.10;1.00
3288;DHT22;3260;52.438;13.502;2022-08-11T07:02:31;23.20;1.00
3288;DHT22;3260;52.438;13.502;2022-08-11T07:05:09;23.30;1.00
3288;DHT22;3260;52.438;13.502;2022-08-11T07:08:13;23.40;1.00
3288;DHT22;3260;52.438;13.502;2022-08-11T07:11:58;23.60;1.00
3288;DHT22;3260;52.438;13.502;2022-08-11T07:14:50;23.60;1.00
3288;DHT22;3260;52.438;13.502;2022-08-11T07:17:41;23.70;1.00
3288;DHT22;3260;52.438;13.502;2022-08-11T07:20:18;23.80;1.00
3288;DHT22;3260;52.438;13.502;2022-08-11T07:23:06;23.90;1.00
3288;DHT22;3260;52.438;13.502;2022-08-11T07:25:55;24.10;1.00
3288;DHT22;3260;52.438;13.502;2022-08-11T07:28:46;24.20;1.00
3288;DHT22;3260;52.438;13.502;2022-08-11T07:31:29;24.30;1.00
3288;DHT22;3260;52.438;13.502;2022-08-11T07:34:07;24.30;1.00
3288;DHT22;3260;52.438;13.502;2022-08-11T07:36:49;24.30;1.00
3288;DHT22;3260;52.438;13.502;2022-08-11T07:39:21;24.40;1.00
3288;DHT22;3260;52.438;13.502;2022-08-11T07:41:55;24.60;1.00
3288;DHT22;3260;52.438;13.502;2022-08-11T07:44:26;24.70;1.00
3288;DHT22;3260;52.438;13.502;2022-08-11T07:47:01;24.70;1.00
3288;DHT22;3260;52.438;13.502;2022-08-11T07:49:51;24.70;1.00
3288;DHT22;3260;52.438;13.502;2022-08-11T07:52:39;24.90;1.00
3288;DHT22;3260;52.438;13.502;2022-08-11T07:55:13;24.90;1.00
3288;DHT22;3260;52.438;13.502;2022-08-11T07:57:44;25.00;1.00
3288;DHT22;3260;52.438;13.502;2022-08-11T08:00:47;25.10;1.00
3288;DHT22;3260;52.438;13.502;2022-08-11T08:03:41;25.30;1.00
3288;DHT22;3260;52.438;13.502;2022-08-11T08:06:29;25.40;1.00
3288;DHT22;3260;52.438;13.502;2022-08-11T08:09:19;25.50;1.00
3288;DHT22;3260;52.438;13.502;2022-08-11T08:12:07;25.50;1.00
3288;DHT22;3260;52.438;13.502;2022-08-11T08:14:55;25.60;1.00
3288;DHT22;3260;52.438;13.502;2022-08-11T08:17:43;25.80;1.00
3288;DHT22;3260;52.438;13.502;2022-08-11T08:20:45;25.90;1.00
3288;DHT22;3260;52.438;13.502;2022-08-11T08:23:16;26.10;1.00
3288;DHT22;3260;52.438;13.502;2022-08-11T08:26:02;26.10;1.00
3288;DHT22;3260;52.438;13.502;2022-08-11T08:28:53;26.10;1.00
3288;DHT22;3260;52.438;13.502;2022-08-11T08:31:43;26.10;1.00
3288;DHT22;3260;52.438;13.502;2022-08-11T08:34:13;26.20;1.00
3288;DHT22;3260;52.438;13.502;2022-08-11T08:36:42;26.30;1.00
3288;DHT22;3260;52.438;13.502;2022-08-11T08:39:13;26.50;1.00
3288;DHT22;3260;52.438;13.502;2022-08-11T08:41:43;26.60;1.00
3288;DHT22;3260;52.438;13.502;2022-08-11T08:44:13;26.80;1.00
3288;DHT22;3260;52.438;13.502;2022-08-11T08:47:04;26.90;1.00
3288;DHT22;3260;52.438;13.502;2022-08-11T08:49:36;27.10;1.00
3288;DHT22;3260;52.438;13.502;2022-08-11T08:52:14;27.20;1.00
3288;DHT22;3260;52.438;13.502;2022-08-11T08:55:02;27.40;1.00
3288;DHT22;3260;52.438;13.502;2022-08-11T08:57:35;27.40;1.00
3288;DHT22;3260;52.438;13.502;2022-08-11T09:00:07;27.50;1.00
3288;DHT22;3260;52.438;13.502;2022-08-11T09:02:40;27.50;1.00
3288;DHT22;3260;52.438;13.502;2022-08-11T09:05:09;27.50;1.00
3288;DHT22;3260;52.438;13.502;2022-08-11T09:07:38;27.60;1.00
3288;DHT22;3260;52.438;13.502;2022-08-11T09:10:09;27.60;1.00
3288;DHT22;3260;52.438;13.502;2022-08-11T09:12:40;27.60;1.00
3288;DHT22;3260;52.438;13.502;2022-08-11T09:15:10;27.50;1.00
3288;DHT22;3260;52.438;13.502;2022-08-11T09:17:46;27.40;1.00
3288;DHT22;3260;52.438;13.502;2022-08-11T09:20:19;27.50;1.00
3288;DHT22;3260;52.438;13.502;2022-08-11T09:22:50;27.70;1.00
3288;DHT22;3260;52.438;13.502;2022-08-11T09:26:01;27.80;1.00
3288;DHT22;3260;52.438;13.502;2022-08-11T09:28:49;28.00;1.00
3288;DHT22;3260;52.438;13.502;2022-08-11T09:31:19;28.10;1.00
3288;DHT22;3260;52.438;13.502;2022-08-11T09:33:51;28.20;1.00
3288;DHT22;3260;52.438;13.502;2022-08-11T09:36:21;28.40;1.00
3288;DHT22;3260;52.438;13.502;2022-08-11T09:39:09;28.40;1.00
3288;DHT22;3260;52.438;13.502;2022-08-11T09:41:58;28.30;1.00
3288;DHT22;3260;52.438;13.502;2022-08-11T09:44:33;28.30;1.00
3288;DHT22;3260;52.438;13.502;2022-08-11T09:47:20;28.40;1.00
3288;DHT22;3260;52.438;13.502;2022-08-11T09:49:52;28.60;1.00
3288;DHT22;3260;52.438;13.502;2022-08-11T09:52:28;28.90;1.00
3288;DHT22;3260;52.438;13.502;2022-08-11T09:55:00;29.20;1.00
3288;DHT22;3260;52.438;13.502;2022-08-11T09:57:38;29.50;1.00
3288;DHT22;3260;52.438;13.502;2022-08-11T10:00:30;29.70;1.00
3288;DHT22;3260;52.438;13.502;2022-08-11T10:03:05;30.10;1.00
3288;DHT22;3260;52.438;13.502;2022-08-11T10:05:37;30.40;1.00
3288;DHT22;3260;52.438;13.502;2022-08-11T10:08:27;30.50;1.00
3288;DHT22;3260;52.438;13.502;2022-08-11T10:10:59;30.70;1.00
3288;DHT22;3260;52.438;13.502;2022-08-11T10:13:30;30.90;1.00
3288;DHT22;3260;52.438;13.502;2022-08-11T10:16:42;31.20;1.00
3288;DHT22;3260;52.438;13.502;2022-08-11T10:19:11;31.50;1.00
3288;DHT22;3260;52.438;13.502;2022-08-11T10:21:42;31.90;1.00
3288;DHT22;3260;52.438;13.502;2022-08-11T10:24:32;32.30;1.00
3288;DHT22;3260;52.438;13.502;2022-08-11T10:27:19;32.60;1.00
3288;DHT22;3260;52.438;13.502;2022-08-11T10:29:54;33.00;1.00
3288;DHT22;3260;52.438;13.502;2022-08-11T10:32:42;33.40;1.00
3288;DHT22;3260;52.438;13.502;2022-08-11T10:35:34;33.80;1.00
3288;DHT22;3260;52.438;13.502;2022-08-11T10:38:03;33.90;1.00
3288;DHT22;3260;52.438;13.502;2022-08-11T10:40:38;34.00;1.00
3288;DHT22;3260;52.438;13.502;2022-08-11T10:43:07;34.10;1.00
3288;DHT22;3260;52.438;13.502;2022-08-11T10:45:44;34.20;1.00
3288;DHT22;3260;52.438;13.502;2022-08-11T10:48:43;34.40;1.00
3288;DHT22;3260;52.438;13.502;2022-08-11T10:51:12;34.50;1.00
3288;DHT22;3260;52.438;13.502;2022-08-11T10:53:43;34.40;1.00
3288;DHT22;3260;52.438;13.502;2022-08-11T10:56:34;34.50;1.00
3288;DHT22;3260;52.438;13.502;2022-08-11T10:59:22;34.40;1.00
3288;DHT22;3260;52.438;13.502;2022-08-11T11:01:54;34.50;1.00
3288;DHT22;3260;52.438;13.502;2022-08-11T11:04:31;34.40;1.00
3288;DHT22;3260;52.438;13.502;2022-08-11T11:07:09;34.80;1.00
3288;DHT22;3260;52.438;13.502;2022-08-11T11:09:53;35.20;1.00
3288;DHT22;3260;52.438;13.502;2022-08-11T11:12:30;35.60;1.00
3288;DHT22;3260;52.438;13.502;2022-08-11T11:15:21;36.10;1.00
3288;DHT22;3260;52.438;13.502;2022-08-11T11:18:10;36.60;1.00
3288;DHT22;3260;52.438;13.502;2022-08-11T11:20:45;37.30;1.00
3288;DHT22;3260;52.438;13.502;2022-08-11T11:23:21;37.70;1.00
3288;DHT22;3260;52.438;13.502;2022-08-11T11:26:26;38.00;1.00
3288;DHT22;3260;52.438;13.502;2022-08-11T11:29:30;38.40;1.00
3288;DHT22;3260;52.438;13.502;2022-08-11T11:32:16;38.70;1.00
3288;DHT22;3260;52.438;13.502;2022-08-11T11:35:09;38.90;1.00
3288;DHT22;3260;52.438;13.502;2022-08-11T11:37:47;39.20;1.00
3288;DHT22;3260;52.438;13.502;2022-08-11T11:40:31;39.50;1.00
3288;DHT22;3260;52.438;13.502;2022-08-11T11:43:00;39.90;1.00
3288;DHT22;3260;52.438;13.502;2022-08-11T11:45:29;40.50;1.00
3288;DHT22;3260;52.438;13.502;2022-08-11T11:47:59;40.70;1.00
3288;DHT22;3260;52.438;13.502;2022-08-11T11:50:30;41.00;1.00
3288;DHT22;3260;52.438;13.502;2022-08-11T11:53:03;41.80;1.00
3288;DHT22;3260;52.438;13.502;2022-08-11T11:55:34;42.40;1.00
3288;DHT22;3260;52.438;13.502;2022-08-11T11:58:04;42.90;1.00
3288;DHT22;3260;52.438;13.502;2022-08-11T12:00:51;43.50;1.00
3288;DHT22;3260;52.438;13.502;2022-08-11T12:03:38;44.20;1.00
3288;DHT22;3260;52.438;13.502;2022-08-11T12:06:08;44.80;1.00
3288;DHT22;3260;52.438;13.502;2022-08-11T12:08:41;45.70;1.00
3288;DHT22;3260;52.438;13.502;2022-08-11T12:11:11;46.40;1.00
3288;DHT22;3260;52.438;13.502;2022-08-11T12:13:59;47.00;1.00
3288;DHT22;3260;52.438;13.502;2022-08-11T12:16:39;47.70;1.00
3288;DHT22;3260;52.438;13.502;2022-08-11T12:19:10;48.50;1.00
3288;DHT22;3260;52.438;13.502;2022-08-11T12:21:40;48.80;1.00
3288;DHT22;3260;52.438;13.502;2022-08-11T12:24:33;49.00;1.00
3288;DHT22;3260;52.438;13.502;2022-08-11T12:27:20;49.70;1.00
3288;DHT22;3260;52.438;13.502;2022-08-11T12:29:56;50.20;1.00
3288;DHT22;3260;52.438;13.502;2022-08-11T12:32:29;50.00;1.00
3288;DHT22;3260;52.438;13.502;2022-08-11T12:34:59;50.00;1.00
3288;DHT22;3260;52.438;13.502;2022-08-11T12:37:30;50.00;1.00
3288;DHT22;3260;52.438;13.502;2022-08-11T12:40:06;49.90;1.00
3288;DHT22;3260;52.438;13.502;2022-08-11T12:43:17;50.50;1.00
3288;DHT22;3260;52.438;13.502;2022-08-11T12:46:11;51.30;1.00
3288;DHT22;3260;52.438;13.502;2022-08-11T12:48:46;52.20;1.00
3288;DHT22;3260;52.438;13.502;2022-08-11T12:51:35;52.60;1.00
3288;DHT22;3260;52.438;13.502;2022-08-11T12:54:49;52.90;1.00
3288;DHT22;3260;52.438;13.502;2022-08-11T12:57:29;53.10;1.00
3288;DHT22;3260;52.438;13.502;2022-08-11T13:00:18;53.50;1.00
3288;DHT22;3260;52.438;13.502;2022-08-11T13:03:07;53.30;1.00
3288;DHT22;3260;52.438;13.502;2022-08-11T13:05:57;51.90;1.00
3288;DHT22;3260;52.438;13.502;2022-08-11T13:08:29;52.20;1.00
3288;DHT22;3260;52.438;13.502;2022-08-11T13:11:01;52.40;1.00
3288;DHT22;3260;52.438;13.502;2022-08-11T13:13:50;53.00;1.00
3288;DHT22;3260;52.438;13.502;2022-08-11T13:16:27;53.70;1.00
3288;DHT22;3260;52.438;13.502;2022-08-11T13:18:59;54.70;1.00
3288;DHT22;3260;52.438;13.502;2022-08-11T13:21:28;54.70;1.00
3288;DHT22;3260;52.438;13.502;2022-08-11T13:23:58;55.50;1.00
3288;DHT22;3260;52.438;13.502;2022-08-11T13:26:33;56.20;1.00
3288;DHT22;3260;52.438;13.502;2022-08-11T13:29:21;56.60;1.00
3288;DHT22;3260;52.438;13.502;2022-08-11T13:31:52;56.60;1.00
3288;DHT22;3260;52.438;13.502;2022-08-11T13:34:23;56.80;1.00
3288;DHT22;3260;52.438;13.502;2022-08-11T13:36:54;57.70;1.00
3288;DHT22;3260;52.438;13.502;2022-08-11T13:39:27;58.20;1.00
3288;DHT22;3260;52.438;13.502;2022-08-11T13:41:59;58.30;1.00
3288;DHT22;3260;52.438;13.502;2022-08-11T13:44:33;58.70;1.00
3288;DHT22;3260;52.438;13.502;2022-08-11T13:47:06;59.10;1.00
3288;DHT22;3260;52.438;13.502;2022-08-11T13:49:37;58.60;1.00
3288;DHT22;3260;52.438;13.502;2022-08-11T13:52:09;58.70;1.00
3288;DHT22;3260;52.438;13.502;2022-08-11T13:54:40;58.80;1.00
3288;DHT22;3260;52.438;13.502;2022-08-11T13:57:11;58.80;1.00
3288;DHT22;3260;52.438;13.502;2022-08-11T14:00:04;58.90;1.00
3288;DHT22;3260;52.438;13.502;2022-08-11T14:02:55;59.50;1.00
3288;DHT22;3260;52.438;13.502;2022-08-11T14:05:26;59.70;1.00
3288;DHT22;3260;52.438;13.502;2022-08-11T14:08:00;59.70;1.00
3288;DHT22;3260;52.438;13.502;2022-08-11T14:10:30;59.50;1.00
3288;DHT22;3260;52.438;13.502;2022-08-11T14:13:06;59.60;1.00
3288;DHT22;3260;52.438;13.502;2022-08-11T14:15:55;59.50;1.00
3288;DHT22;3260;52.438;13.502;2022-08-11T14:18:31;59.50;1.00
3288;DHT22;3260;52.438;13.502;2022-08-11T14:21:04;59.80;1.00
3288;DHT22;3260;52.438;13.502;2022-08-11T14:23:51;60.30;1.00
3288;DHT22;3260;52.438;13.502;2022-08-11T14:26:27;60.90;1.00
3288;DHT22;3260;52.438;13.502;2022-08-11T14:29:06;60.70;1.00
3288;DHT22;3260;52.438;13.502;2022-08-11T14:31:42;60.40;1.00
3288;DHT22;3260;52.438;13.502;2022-08-11T14:34:13;59.80;1.00
3288;DHT22;3260;52.438;13.502;2022-08-11T14:36:43;59.70;1.00
3288;DHT22;3260;52.438;13.502;2022-08-11T14:39:15;59.60;1.00
3288;DHT22;3260;52.438;13.502;2022-08-11T14:41:47;59.90;1.00
3288;DHT22;3260;52.438;13.502;2022-08-11T14:44:41;60.30;1.00
3288;DHT22;3260;52.438;13.502;2022-08-11T14:47:33;60.40;1.00
3288;DHT22;3260;52.438;13.502;2022-08-11T14:50:04;60.00;1.00
3288;DHT22;3260;52.438;13.502;2022-08-11T14:52:43;59.70;1.00
3288;DHT22;3260;52.438;13.502;2022-08-11T14:55:17;60.00;1.00
3288;DHT22;3260;52.438;13.502;2022-08-11T14:58:07;59.30;1.00
3288;DHT22;3260;52.438;13.502;2022-08-11T15:00:37;59.60;1.00
3288;DHT22;3260;52.438;13.502;2022-08-11T15:03:10;59.60;1.00
3288;DHT22;3260;52.438;13.502;2022-08-11T15:05:43;59.90;1.00
3288;DHT22;3260;52.438;13.502;2022-08-11T15:08:26;60.10;1.00
3288;DHT22;3260;52.438;13.502;2022-08-11T15:11:17;60.10;1.00
3288;DHT22;3260;52.438;13.502;2022-08-11T15:14:08;59.90;1.00
3288;DHT22;3260;52.438;13.502;2022-08-11T15:16:41;59.40;1.00
3288;DHT22;3260;52.438;13.502;2022-08-11T15:19:30;59.00;1.00
3288;DHT22;3260;52.438;13.502;2022-08-11T15:22:06;58.60;1.00
3288;DHT22;3260;52.438;13.502;2022-08-11T15:24:55;58.20;1.00
3288;DHT22;3260;52.438;13.502;2022-08-11T15:27:25;58.00;1.00
3288;DHT22;3260;52.438;13.502;2022-08-11T15:30:15;58.40;1.00
3288;DHT22;3260;52.438;13.502;2022-08-11T15:33:07;58.00;1.00
3288;DHT22;3260;52.438;13.502;2022-08-11T15:35:57;58.00;1.00
3288;DHT22;3260;52.438;13.502;2022-08-11T15:38:50;58.20;1.00
3288;DHT22;3260;52.438;13.502;2022-08-11T15:41:28;58.40;1.00
3288;DHT22;3260;52.438;13.502;2022-08-11T15:44:26;58.10;1.00
3288;DHT22;3260;52.438;13.502;2022-08-11T15:47:35;57.90;1.00
3288;DHT22;3260;52.438;13.502;2022-08-11T15:50:09;57.80;1.00
3288;DHT22;3260;52.438;13.502;2022-08-11T15:52:48;57.50;1.00
3288;DHT22;3260;52.438;13.502;2022-08-11T15:55:20;57.00;1.00
3288;DHT22;3260;52.438;13.502;2022-08-11T15:57:52;56.70;1.00
3288;DHT22;3260;52.438;13.502;2022-08-11T16:00:40;57.00;1.00
3288;DHT22;3260;52.438;13.502;2022-08-11T16:03:40;56.90;1.00
3288;DHT22;3260;52.438;13.502;2022-08-11T16:06:37;56.80;1.00
3288;DHT22;3260;52.438;13.502;2022-08-11T16:09:20;56.70;1.00
3288;DHT22;3260;52.438;13.502;2022-08-11T16:12:02;55.90;1.00
3288;DHT22;3260;52.438;13.502;2022-08-11T16:14:35;55.00;1.00
3288;DHT22;3260;52.438;13.502;2022-08-11T16:17:25;54.60;1.00
3288;DHT22;3260;52.438;13.502;2022-08-11T16:19:58;54.50;1.00
3288;DHT22;3260;52.438;13.502;2022-08-11T16:22:31;54.10;1.00
3288;DHT22;3260;52.438;13.502;2022-08-11T16:25:08;54.00;1.00
3288;DHT22;3260;52.438;13.502;2022-08-11T16:28:01;54.20;1.00
3288;DHT22;3260;52.438;13.502;2022-08-11T16:30:31;53.80;1.00
3288;DHT22;3260;52.438;13.502;2022-08-11T16:33:02;53.10;1.00
3288;DHT22;3260;52.438;13.502;2022-08-11T16:35:53;53.00;1.00
3288;DHT22;3260;52.438;13.502;2022-08-11T16:38:40;52.60;1.00
3288;DHT22;3260;52.438;13.502;2022-08-11T16:41:14;51.70;1.00
3288;DHT22;3260;52.438;13.502;2022-08-11T16:44:07;50.70;1.00
3288;DHT22;3260;52.438;13.502;2022-08-11T16:47:04;49.70;1.00
3288;DHT22;3260;52.438;13.502;2022-08-11T16:49:35;49.00;1.00
3288;DHT22;3260;52.438;13.502;2022-08-11T16:52:05;49.00;1.00
3288;DHT22;3260;52.438;13.502;2022-08-11T16:54:39;49.00;1.00
3288;DHT22;3260;52.438;13.502;2022-08-11T16:57:15;48.70;1.00
3288;DHT22;3260;52.438;13.502;2022-08-11T17:00:09;48.30;1.00
3288;DHT22;3260;52.438;13.502;2022-08-11T17:02:43;47.40;1.00
3288;DHT22;3260;52.438;13.502;2022-08-11T17:05:32;46.50;1.00
3288;DHT22;3260;52.438;13.502;2022-08-11T17:08:25;45.50;1.00
3288;DHT22;3260;52.438;13.502;2022-08-11T17:11:25;44.40;1.00
3288;DHT22;3260;52.438;13.502;2022-08-11T17:14:19;43.50;1.00
3288;DHT22;3260;52.438;13.502;2022-08-11T17:17:03;42.30;1.00
3288;DHT22;3260;52.438;13.502;2022-08-11T17:19:42;41.00;1.00
3288;DHT22;3260;52.438;13.502;2022-08-11T17:22:33;39.70;1.00
3288;DHT22;3260;52.438;13.502;2022-08-11T17:25:23;38.50;1.00
3288;DHT22;3260;52.438;13.502;2022-08-11T17:27:54;37.40;1.00
3288;DHT22;3260;52.438;13.502;2022-08-11T17:30:25;36.60;1.00
3288;DHT22;3260;52.438;13.502;2022-08-11T17:33:16;35.90;1.00
3288;DHT22;3260;52.438;13.502;2022-08-11T17:36:04;35.40;1.00
3288;DHT22;3260;52.438;13.502;2022-08-11T17:38:34;35.10;1.00
3288;DHT22;3260;52.438;13.502;2022-08-11T17:41:04;35.00;1.00
3288;DHT22;3260;52.438;13.502;2022-08-11T17:43:51;35.00;1.00
3288;DHT22;3260;52.438;13.502;2022-08-11T17:46:40;35.10;1.00
3288;DHT22;3260;52.438;13.502;2022-08-11T17:49:45;35.10;1.00
3288;DHT22;3260;52.438;13.502;2022-08-11T17:52:13;34.80;1.00
3288;DHT22;3260;52.438;13.502;2022-08-11T17:55:01;34.40;1.00
3288;DHT22;3260;52.438;13.502;2022-08-11T17:58:08;33.80;1.00
3288;DHT22;3260;52.438;13.502;2022-08-11T18:00:56;33.10;1.00
3288;DHT22;3260;52.438;13.502;2022-08-11T18:03:37;32.50;1.00
3288;DHT22;3260;52.438;13.502;2022-08-11T18:06:25;31.90;1.00
3288;DHT22;3260;52.438;13.502;2022-08-11T18:09:03;31.40;1.00
3288;DHT22;3260;52.438;13.502;2022-08-11T18:11:52;30.90;1.00
3288;DHT22;3260;52.438;13.502;2022-08-11T18:14:45;30.40;1.00
3288;DHT22;3260;52.438;13.502;2022-08-11T18:17:33;29.90;1.00
3288;DHT22;3260;52.438;13.502;2022-08-11T18:20:22;29.50;1.00
3288;DHT22;3260;52.438;13.502;2022-08-11T18:23:18;29.10;1.00
3288;DHT22;3260;52.438;13.502;2022-08-11T18:26:16;28.70;1.00
3288;DHT22;3260;52.438;13.502;2022-08-11T18:29:05;28.30;1.00
3288;DHT22;3260;52.438;13.502;2022-08-11T18:31:53;28.00;1.00
3288;DHT22;3260;52.438;13.502;2022-08-11T18:34:49;27.60;1.00
3288;DHT22;3260;52.438;13.502;2022-08-11T18:37:45;27.30;1.00
3288;DHT22;3260;52.438;13.502;2022-08-11T18:40:34;27.00;1.00
3288;DHT22;3260;52.438;13.502;2022-08-11T18:43:22;26.70;1.00
3288;DHT22;3260;52.438;13.502;2022-08-11T18:46:12;26.50;1.00
3288;DHT22;3260;52.438;13.502;2022-08-11T18:49:07;26.30;1.00
3288;DHT22;3260;52.438;13.502;2022-08-11T18:52:17;26.00;1.00
3288;DHT22;3260;52.438;13.502;2022-08-11T18:55:10;25.80;1.00
3288;DHT22;3260;52.438;13.502;2022-08-11T18:58:00;25.60;1.00
3288;DHT22;3260;52.438;13.502;2022-08-11T19:00:50;25.40;1.00
3288;DHT22;3260;52.438;13.502;2022-08-11T19:03:41;25.20;1.00
3288;DHT22;3260;52.438;13.502;2022-08-11T19:06:37;25.00;1.00
3288;DHT22;3260;52.438;13.502;2022-08-11T19:09:25;24.80;1.00
3288;DHT22;3260;52.438;13.502;2022-08-11T19:12:16;24.70;1.00
3288;DHT22;3260;52.438;13.502;2022-08-11T19:15:03;24.60;1.00
3288;DHT22;3260;52.438;13.502;2022-08-11T19:17:51;24.40;1.00
3288;DHT22;3260;52.438;13.502;2022-08-11T19:20:41;24.30;1.00
3288;DHT22;3260;52.438;13.502;2022-08-11T19:23:33;24.20;1.00
3288;DHT22;3260;52.438;13.502;2022-08-11T19:26:23;24.10;1.00
3288;DHT22;3260;52.438;13.502;2022-08-11T19:29:11;24.00;1.00
3288;DHT22;3260;52.438;13.502;2022-08-11T19:32:19;23.80;1.00
3288;DHT22;3260;52.438;13.502;2022-08-11T19:35:07;23.70;1.00
3288;DHT22;3260;52.438;13.502;2022-08-11T19:37:54;23.60;1.00
3288;DHT22;3260;52.438;13.502;2022-08-11T19:40:43;23.60;1.00
3288;DHT22;3260;52.438;13.502;2022-08-11T19:43:31;23.40;1.00
3288;DHT22;3260;52.438;13.502;2022-08-11T19:46:22;23.40;1.00
3288;DHT22;3260;52.438;13.502;2022-08-11T19:49:09;23.30;1.00
3288;DHT22;3260;52.438;13.502;2022-08-11T19:51:57;23.30;1.00
3288;DHT22;3260;52.438;13.502;2022-08-11T19:54:45;23.20;1.00
3288;DHT22;3260;52.438;13.502;2022-08-11T19:57:35;23.10;1.00
3288;DHT22;3260;52.438;13.502;2022-08-11T20:00:22;23.10;1.00
3288;DHT22;3260;52.438;13.502;2022-08-11T20:03:12;23.00;1.00
3288;DHT22;3260;52.438;13.502;2022-08-11T20:06:00;22.90;1.00
3288;DHT22;3260;52.438;13.502;2022-08-11T20:08:52;22.90;1.00
3288;DHT22;3260;52.438;13.502;2022-08-11T20:11:46;22.80;1.00
3288;DHT22;3260;52.438;13.502;2022-08-11T20:14:36;22.80;1.00
3288;DHT22;3260;52.438;13.502;2022-08-11T20:17:26;22.70;1.00
3288;DHT22;3260;52.438;13.502;2022-08-11T20:20:20;22.70;1.00
3288;DHT22;3260;52.438;13.502;2022-08-11T20:23:18;22.60;1.00
3288;DHT22;3260;52.438;13.502;2022-08-11T20:26:06;22.60;1.00
3288;DHT22;3260;52.438;13.502;2022-08-11T20:29:00;22.50;1.00
3288;DHT22;3260;52.438;13.502;2022-08-11T20:31:46;22.40;1.00
3288;DHT22;3260;52.438;13.502;2022-08-11T20:34:37;22.30;1.00
3288;DHT22;3260;52.438;13.502;2022-08-11T20:37:26;22.30;1.00
3288;DHT22;3260;52.438;13.502;2022-08-11T20:40:19;22.20;1.00
3288;DHT22;3260;52.438;13.502;2022-08-11T20:43:10;22.10;1.00
3288;DHT22;3260;52.438;13.502;2022-08-11T20:46:18;22.10;1.00
3288;DHT22;3260;52.438;13.502;2022-08-11T20:49:08;22.00;1.00
3288;DHT22;3260;52.438;13.502;2022-08-11T20:52:14;21.90;1.00
3288;DHT22;3260;52.438;13.502;2022-08-11T20:55:05;21.90;1.00
3288;DHT22;3260;52.438;13.502;2022-08-11T20:58:13;21.80;1.00
